createdAt,value
2022-10-19T00:01:37.302Z,7.94
2022-10-19T00:06:36.244Z,7.68
2022-10-19T00:11:30.551Z,7.93
2022-10-19T00:16:27.629Z,7.97
2022-10-19T00:21:21.328Z,7.25
2022-10-19T00:26:16.068Z,8.10
2022-10-19T00:31:11.782Z,8.05
2022-10-19T00:36:06.303Z,7.47
2022-10-19T00:40:59.625Z,8.08
2022-10-19T00:45:54.639Z,7.86
2022-10-19T00:50:49.183Z,8.02
2022-10-19T00:55:46.587Z,7.98
2022-10-19T01:00:39.918Z,6.63
2022-10-19T01:05:35.970Z,7.73
2022-10-19T01:10:47.324Z,7.10
2022-10-19T01:15:48.262Z,6.45
2022-10-19T01:21:20.256Z,7.48
2022-10-19T01:26:34.099Z,6.48
2022-10-19T01:31:38.165Z,7.24
2022-10-19T01:36:43.385Z,6.00
2022-10-19T01:41:47.317Z,6.68
2022-10-19T01:46:45.292Z,6.43
2022-10-19T01:51:43.688Z,6.80
2022-10-19T01:56:38.956Z,6.80
2022-10-19T02:01:35.908Z,5.52
2022-10-19T02:06:30.529Z,5.19
2022-10-19T02:11:25.191Z,6.63
2022-10-19T02:16:25.229Z,6.18
2022-10-19T02:21:19.459Z,5.79
2022-10-19T02:26:14.625Z,5.92
2022-10-19T02:31:10.213Z,5.54
2022-10-19T02:36:03.811Z,6.75
2022-10-19T02:41:11.046Z,5.94
2022-10-19T02:46:09.542Z,6.79
2022-10-19T02:51:02.826Z,5.46
2022-10-19T02:55:56.089Z,6.52
2022-10-19T03:00:49.390Z,6.79
2022-10-19T03:05:46.851Z,5.70
2022-10-19T03:10:40.049Z,6.75
2022-10-19T03:15:33.288Z,6.67
2022-10-19T03:20:26.413Z,6.56
2022-10-19T03:25:23.349Z,6.28
2022-10-19T03:30:18.513Z,5.53
2022-10-19T03:35:11.688Z,5.56
2022-10-19T03:40:05.611Z,6.19
2022-10-19T03:45:00.231Z,5.99
2022-10-19T03:49:56.359Z,5.69
2022-10-19T03:54:52.044Z,6.42
2022-10-19T03:59:45.427Z,6.52
2022-10-19T04:04:42.647Z,5.76
2022-10-19T04:09:38.734Z,5.74
2022-10-19T04:14:33.466Z,5.58
2022-10-19T04:19:33.198Z,6.02
2022-10-19T04:24:28.217Z,4.99
2022-10-19T04:29:26.302Z,5.32
2022-10-19T04:34:29.696Z,5.43
2022-10-19T04:39:22.895Z,5.53
2022-10-19T04:44:17.753Z,5.49
2022-10-19T04:49:11.075Z,5.42
2022-10-19T04:54:06.497Z,5.79
2022-10-19T04:59:01.202Z,5.91
2022-10-19T05:08:59.357Z,6.84
2022-10-19T05:13:52.655Z,6.53
2022-10-19T05:18:50.056Z,7.41
2022-10-19T05:23:44.715Z,7.56
2022-10-19T05:28:38.845Z,7.17
2022-10-19T05:33:32.171Z,7.72
2022-10-19T05:38:25.402Z,7.67
2022-10-19T05:43:19.972Z,7.87
2022-10-19T05:48:13.224Z,7.80
2022-10-19T05:53:06.586Z,7.87
2022-10-19T05:57:59.900Z,8.01
2022-10-19T06:02:58.972Z,7.83
2022-10-19T06:07:52.996Z,8.01
2022-10-19T06:12:46.286Z,8.01
2022-10-19T06:17:39.825Z,8.36
2022-10-19T06:22:34.562Z,8.05
2022-10-19T06:27:27.948Z,8.60
2022-10-19T06:32:21.597Z,8.02
2022-10-19T06:37:16.711Z,8.84
2022-10-19T06:42:11.481Z,9.07
2022-10-19T06:47:04.958Z,9.14
2022-10-19T06:52:02.282Z,8.90
2022-10-19T06:56:55.686Z,9.76
2022-10-19T07:01:52.552Z,10.21
2022-10-19T07:06:45.893Z,10.29
2022-10-19T07:11:43.579Z,10.29
2022-10-19T07:16:39.360Z,10.79
2022-10-19T07:21:35.970Z,10.86
2022-10-19T07:26:30.662Z,11.10
2022-10-19T07:31:25.235Z,10.82
2022-10-19T07:36:19.106Z,10.63
2022-10-19T07:41:15.809Z,11.00
2022-10-19T07:46:12.103Z,12.24
2022-10-19T07:51:10.024Z,12.50
2022-10-19T07:56:07.474Z,12.78
2022-10-19T08:01:06.835Z,12.86
2022-10-19T08:06:04.824Z,13.17
2022-10-19T08:11:00.140Z,13.64
2022-10-19T08:15:58.402Z,12.84
2022-10-19T08:20:56.424Z,14.02
2022-10-19T08:25:49.886Z,13.57
2022-10-19T08:30:46.675Z,13.60
2022-10-19T08:35:40.436Z,14.52
2022-10-19T08:40:35.202Z,14.19
2022-10-19T08:50:40.009Z,16.22
2022-10-19T08:55:45.649Z,16.93
2022-10-19T09:00:44.666Z,17.46
2022-10-19T09:05:46.123Z,17.54
2022-10-19T09:10:45.065Z,18.05
2022-10-19T09:15:41.949Z,18.43
2022-10-19T09:20:39.592Z,18.68
2022-10-19T09:25:37.034Z,18.97
2022-10-19T09:30:35.364Z,19.18
2022-10-19T09:35:31.834Z,19.17
2022-10-19T09:40:28.816Z,19.10
2022-10-19T09:45:35.413Z,18.77
2022-10-19T09:50:31.182Z,19.26
2022-10-19T09:55:31.059Z,19.38
2022-10-19T10:12:55.594Z,19.11
2022-10-19T10:17:50.622Z,19.06
2022-10-19T10:22:54.138Z,18.75
2022-10-19T10:27:59.702Z,18.83
2022-10-19T10:32:55.315Z,18.96
2022-10-19T10:37:49.371Z,19.08
2022-10-19T10:42:44.700Z,19.17
2022-10-19T10:47:40.591Z,19.12
2022-10-19T10:52:36.678Z,19.14
2022-10-19T10:57:39.074Z,19.45
2022-10-19T11:02:41.252Z,19.51
2022-10-19T11:07:37.228Z,19.69
2022-10-19T11:12:37.346Z,20.17
2022-10-19T11:17:36.606Z,20.26
2022-10-19T11:22:36.521Z,20.34
2022-10-19T11:27:43.141Z,20.37
2022-10-19T11:32:52.857Z,20.46
2022-10-19T11:38:18.781Z,20.10
2022-10-19T11:43:19.637Z,20.53
2022-10-19T11:48:31.497Z,20.61
2022-10-19T11:53:37.468Z,20.41
2022-10-19T11:58:43.607Z,20.16
2022-10-19T12:03:57.206Z,20.26
2022-10-19T12:09:06.021Z,20.67
2022-10-19T12:14:04.259Z,20.63
2022-10-19T12:19:00.529Z,20.71
2022-10-19T12:23:58.193Z,20.69
2022-10-19T12:28:56.764Z,20.61
2022-10-19T12:33:57.504Z,20.92
2022-10-19T12:39:02.440Z,20.92
2022-10-19T12:44:07.388Z,20.89
2022-10-19T12:49:38.715Z,20.88
2022-10-19T12:54:36.969Z,20.85
2022-10-19T12:59:32.605Z,20.85
2022-10-19T13:04:28.311Z,20.75
2022-10-19T13:09:25.896Z,20.72
2022-10-19T13:14:45.071Z,20.47
2022-10-19T13:19:38.242Z,20.63
2022-10-19T13:24:37.998Z,20.58
2022-10-19T13:29:42.974Z,20.63
2022-10-19T13:34:37.664Z,20.63
2022-10-19T13:39:31.482Z,20.64
2022-10-19T13:44:28.064Z,20.49
2022-10-19T13:49:36.541Z,20.46
2022-10-19T13:54:47.598Z,20.49
2022-10-19T14:00:03.743Z,20.42
2022-10-19T14:05:21.094Z,20.44
2022-10-19T14:10:18.044Z,20.52
2022-10-19T14:15:30.123Z,20.49
2022-10-19T14:20:30.730Z,20.16
2022-10-19T14:25:27.360Z,19.66
2022-10-19T14:30:24.830Z,20.37
2022-10-19T14:35:23.135Z,19.99
2022-10-19T14:40:29.305Z,19.76
2022-10-19T14:45:24.836Z,19.70
2022-10-19T14:50:18.711Z,19.47
2022-10-19T14:55:18.631Z,19.31
2022-10-19T15:00:19.298Z,19.13
2022-10-19T15:05:20.857Z,18.87
2022-10-19T15:10:24.970Z,18.70
2022-10-19T15:16:11.238Z,18.36
2022-10-19T15:21:29.443Z,18.19
2022-10-19T16:02:38.057Z,16.84
2022-10-19T16:08:11.703Z,16.67
2022-10-19T16:13:40.407Z,15.82
2022-10-19T16:18:47.706Z,16.38
2022-10-19T16:24:14.367Z,15.17
2022-10-19T16:35:55.771Z,14.82
2022-10-19T17:43:43.556Z,12.87
2022-10-19T17:48:54.373Z,13.19
2022-10-19T17:54:27.222Z,13.34
2022-10-19T17:59:52.671Z,13.71
2022-10-19T18:18:26.065Z,12.51
2022-10-19T18:37:10.157Z,12.53
2022-10-19T18:42:37.010Z,11.43
2022-10-19T19:07:33.072Z,11.88
2022-10-19T19:13:42.426Z,10.78
2022-10-19T19:19:47.714Z,10.32
2022-10-19T19:25:28.897Z,10.79
2022-10-19T19:36:58.598Z,10.06
2022-10-19T19:42:08.058Z,11.62
2022-10-19T19:47:08.777Z,10.56
2022-10-19T19:52:09.453Z,10.78
2022-10-19T19:57:07.942Z,11.58
2022-10-19T20:02:20.122Z,10.80
2022-10-19T20:07:52.018Z,12.01
2022-10-19T20:19:35.604Z,12.01
2022-10-19T20:25:00.709Z,10.84
2022-10-19T20:29:58.652Z,12.22
2022-10-19T20:34:56.681Z,11.32
2022-10-19T20:39:53.461Z,11.28
2022-10-19T20:44:55.100Z,11.11
2022-10-19T20:49:51.890Z,12.29
2022-10-19T20:54:46.772Z,11.10
2022-10-19T20:59:40.179Z,11.42
2022-10-19T21:04:34.003Z,11.11
2022-10-19T21:09:31.206Z,10.95
2022-10-19T21:14:28.583Z,12.30
2022-10-19T21:19:25.583Z,11.75
2022-10-19T21:24:20.997Z,12.23
2022-10-19T21:29:16.159Z,12.13
2022-10-19T21:34:14.471Z,12.04
2022-10-19T21:39:08.014Z,11.18
2022-10-19T21:49:54.619Z,11.74
2022-10-19T21:54:59.162Z,12.86
2022-10-19T21:59:56.989Z,12.81
2022-10-19T22:05:08.785Z,13.03
2022-10-19T22:10:42.413Z,12.78
2022-10-19T22:15:41.997Z,13.11
2022-10-19T22:20:40.997Z,12.00
2022-10-19T22:25:36.447Z,11.48
2022-10-19T22:30:29.980Z,11.99
2022-10-19T22:35:23.609Z,11.41
2022-10-19T22:40:18.629Z,11.91
2022-10-19T22:45:11.954Z,11.81
2022-10-19T22:50:06.830Z,11.10
2022-10-19T22:55:02.691Z,11.54
2022-10-19T23:00:00.282Z,11.01
2022-10-19T23:04:53.620Z,12.18
2022-10-19T23:09:50.563Z,12.33
2022-10-19T23:14:46.236Z,12.66
2022-10-19T23:19:41.062Z,11.93
2022-10-19T23:24:34.395Z,12.60
2022-10-19T23:29:27.662Z,11.46
2022-10-19T23:34:20.885Z,11.62
2022-10-19T23:39:15.496Z,12.48
2022-10-19T23:44:08.877Z,12.23
2022-10-19T23:49:02.350Z,11.75
2022-10-19T23:53:56.751Z,10.82
2022-10-19T23:58:54.445Z,11.71
